Terminal Aerodrome Forecast
Issued by NWS

Home | Current Version | Previous Version | Text Only | Print | Product List | Glossary On
Versions: 1 2 3 4 5 6 7 8 9 10 11 12 13 14 15 16 17 18 19 20
405
FTUS43 KILX 041345 AAA
TAFBMI
TAF AMD
KBMI 041345Z 0414/0512 34017G26KT P6SM BKN010
     FM041600 34017G26KT P6SM BKN020
     FM041800 34018G28KT P6SM VCSH BKN040
     FM050100 33011KT P6SM SKC=

USA.gov is the U.S. government's official web portal to all federal, state and local government web resources and services.